sensor_id;sensor_type;location;lat;lon;timestamp;P1;durP1;ratioP1;P2;durP2;ratioP2
32611;SDS011;19030;49.478;8.986;2023-11-21T00:00:19;8.57;;;5.10;;
32611;SDS011;19030;49.478;8.986;2023-11-21T00:02:20;9.77;;;5.45;;
32611;SDS011;19030;49.478;8.986;2023-11-21T00:04:21;13.88;;;6.25;;
32611;SDS011;19030;49.478;8.986;2023-11-21T00:06:21;11.20;;;5.40;;
32611;SDS011;19030;49.478;8.986;2023-11-21T00:08:22;7.07;;;5.25;;
32611;SDS011;19030;49.478;8.986;2023-11-21T00:10:23;9.98;;;5.80;;
32611;SDS011;19030;49.478;8.986;2023-11-21T00:12:23;9.30;;;5.18;;
32611;SDS011;19030;49.478;8.986;2023-11-21T00:14:24;9.52;;;5.07;;
32611;SDS011;19030;49.478;8.986;2023-11-21T00:16:25;9.65;;;5.38;;
32611;SDS011;19030;49.478;8.986;2023-11-21T00:18:26;10.98;;;5.97;;
32611;SDS011;19030;49.478;8.986;2023-11-21T00:20:26;11.70;;;5.90;;
32611;SDS011;19030;49.478;8.986;2023-11-21T00:22:27;9.55;;;5.60;;
32611;SDS011;19030;49.478;8.986;2023-11-21T00:24:27;12.07;;;6.82;;
32611;SDS011;19030;49.478;8.986;2023-11-21T00:26:28;8.00;;;5.20;;
32611;SDS011;19030;49.478;8.986;2023-11-21T00:28:35;9.98;;;5.90;;
32611;SDS011;19030;49.478;8.986;2023-11-21T00:30:36;12.10;;;5.40;;
32611;SDS011;19030;49.478;8.986;2023-11-21T00:32:37;8.18;;;5.43;;
32611;SDS011;19030;49.478;8.986;2023-11-21T00:34:38;10.73;;;5.60;;
32611;SDS011;19030;49.478;8.986;2023-11-21T00:36:40;15.63;;;5.30;;
32611;SDS011;19030;49.478;8.986;2023-11-21T00:38:40;12.18;;;5.60;;
32611;SDS011;19030;49.478;8.986;2023-11-21T00:40:41;11.27;;;5.20;;
32611;SDS011;19030;49.478;8.986;2023-11-21T00:42:42;11.20;;;5.45;;
32611;SDS011;19030;49.478;8.986;2023-11-21T00:44:42;9.43;;;5.20;;
32611;SDS011;19030;49.478;8.986;2023-11-21T00:46:43;8.88;;;4.95;;
32611;SDS011;19030;49.478;8.986;2023-11-21T00:48:43;9.90;;;5.63;;
32611;SDS011;19030;49.478;8.986;2023-11-21T00:50:44;8.73;;;5.68;;
32611;SDS011;19030;49.478;8.986;2023-11-21T00:52:44;8.75;;;5.70;;
32611;SDS011;19030;49.478;8.986;2023-11-21T00:54:46;8.90;;;5.95;;
32611;SDS011;19030;49.478;8.986;2023-11-21T00:56:48;11.48;;;5.78;;
32611;SDS011;19030;49.478;8.986;2023-11-21T00:58:49;12.48;;;6.10;;
32611;SDS011;19030;49.478;8.986;2023-11-21T01:00:52;10.55;;;5.50;;
32611;SDS011;19030;49.478;8.986;2023-11-21T01:02:52;11.30;;;5.57;;
32611;SDS011;19030;49.478;8.986;2023-11-21T01:04:53;11.02;;;5.35;;
32611;SDS011;19030;49.478;8.986;2023-11-21T01:06:54;9.70;;;5.88;;
32611;SDS011;19030;49.478;8.986;2023-11-21T01:08:54;10.30;;;5.40;;
32611;SDS011;19030;49.478;8.986;2023-11-21T01:10:55;9.05;;;4.85;;
32611;SDS011;19030;49.478;8.986;2023-11-21T01:12:56;10.05;;;5.25;;
32611;SDS011;19030;49.478;8.986;2023-11-21T01:14:57;7.18;;;5.00;;
32611;SDS011;19030;49.478;8.986;2023-11-21T01:17:00;6.85;;;4.97;;
32611;SDS011;19030;49.478;8.986;2023-11-21T01:19:01;12.93;;;5.20;;
32611;SDS011;19030;49.478;8.986;2023-11-21T01:21:03;7.07;;;4.90;;
32611;SDS011;19030;49.478;8.986;2023-11-21T01:23:05;8.40;;;4.75;;
32611;SDS011;19030;49.478;8.986;2023-11-21T01:25:05;7.55;;;4.85;;
32611;SDS011;19030;49.478;8.986;2023-11-21T01:27:07;8.45;;;4.88;;
32611;SDS011;19030;49.478;8.986;2023-11-21T01:29:08;6.50;;;4.88;;
32611;SDS011;19030;49.478;8.986;2023-11-21T01:31:09;10.93;;;5.65;;
32611;SDS011;19030;49.478;8.986;2023-11-21T01:33:10;9.38;;;4.90;;
32611;SDS011;19030;49.478;8.986;2023-11-21T01:35:10;13.13;;;5.10;;
32611;SDS011;19030;49.478;8.986;2023-11-21T01:37:11;8.63;;;4.95;;
32611;SDS011;19030;49.478;8.986;2023-11-21T01:39:12;6.22;;;4.70;;
32611;SDS011;19030;49.478;8.986;2023-11-21T01:41:15;8.93;;;5.03;;
32611;SDS011;19030;49.478;8.986;2023-11-21T01:43:16;9.45;;;4.72;;
32611;SDS011;19030;49.478;8.986;2023-11-21T01:45:16;7.82;;;4.78;;
32611;SDS011;19030;49.478;8.986;2023-11-21T01:47:17;6.78;;;5.13;;
32611;SDS011;19030;49.478;8.986;2023-11-21T01:49:18;8.68;;;4.70;;
32611;SDS011;19030;49.478;8.986;2023-11-21T01:51:20;5.95;;;4.55;;
32611;SDS011;19030;49.478;8.986;2023-11-21T01:53:21;6.15;;;4.50;;
32611;SDS011;19030;49.478;8.986;2023-11-21T01:55:23;8.90;;;4.90;;
32611;SDS011;19030;49.478;8.986;2023-11-21T01:57:24;7.10;;;4.75;;
32611;SDS011;19030;49.478;8.986;2023-11-21T01:59:25;9.75;;;4.70;;
32611;SDS011;19030;49.478;8.986;2023-11-21T02:01:26;8.68;;;4.75;;
32611;SDS011;19030;49.478;8.986;2023-11-21T02:03:27;7.30;;;4.70;;
32611;SDS011;19030;49.478;8.986;2023-11-21T02:05:28;7.72;;;4.32;;
32611;SDS011;19030;49.478;8.986;2023-11-21T02:07:29;7.60;;;4.75;;
32611;SDS011;19030;49.478;8.986;2023-11-21T02:09:32;6.90;;;4.78;;
32611;SDS011;19030;49.478;8.986;2023-11-21T02:11:33;8.32;;;4.72;;
32611;SDS011;19030;49.478;8.986;2023-11-21T02:13:35;8.02;;;5.03;;
32611;SDS011;19030;49.478;8.986;2023-11-21T02:15:36;6.75;;;4.93;;
32611;SDS011;19030;49.478;8.986;2023-11-21T02:17:38;8.00;;;4.85;;
32611;SDS011;19030;49.478;8.986;2023-11-21T02:19:39;7.25;;;5.03;;
32611;SDS011;19030;49.478;8.986;2023-11-21T02:21:39;6.03;;;4.68;;
32611;SDS011;19030;49.478;8.986;2023-11-21T02:23:40;9.40;;;5.10;;
32611;SDS011;19030;49.478;8.986;2023-11-21T02:25:44;7.53;;;4.88;;
32611;SDS011;19030;49.478;8.986;2023-11-21T02:27:44;7.70;;;4.90;;
32611;SDS011;19030;49.478;8.986;2023-11-21T02:29:48;11.15;;;4.75;;
32611;SDS011;19030;49.478;8.986;2023-11-21T02:31:51;10.57;;;5.50;;
32611;SDS011;19030;49.478;8.986;2023-11-21T02:33:52;8.20;;;5.20;;
32611;SDS011;19030;49.478;8.986;2023-11-21T02:35:52;6.78;;;4.63;;
32611;SDS011;19030;49.478;8.986;2023-11-21T02:37:55;11.27;;;5.18;;
32611;SDS011;19030;49.478;8.986;2023-11-21T02:39:55;10.18;;;5.40;;
32611;SDS011;19030;49.478;8.986;2023-11-21T02:41:56;8.10;;;4.90;;
32611;SDS011;19030;49.478;8.986;2023-11-21T02:43:56;7.53;;;4.93;;
32611;SDS011;19030;49.478;8.986;2023-11-21T02:45:57;7.00;;;4.90;;
32611;SDS011;19030;49.478;8.986;2023-11-21T02:47:57;6.50;;;4.72;;
32611;SDS011;19030;49.478;8.986;2023-11-21T02:49:59;10.15;;;4.78;;
32611;SDS011;19030;49.478;8.986;2023-11-21T02:51:59;5.57;;;4.20;;
32611;SDS011;19030;49.478;8.986;2023-11-21T02:54:01;8.80;;;4.90;;
32611;SDS011;19030;49.478;8.986;2023-11-21T02:56:05;7.43;;;4.47;;
32611;SDS011;19030;49.478;8.986;2023-11-21T02:58:06;8.00;;;5.03;;
32611;SDS011;19030;49.478;8.986;2023-11-21T03:00:07;7.10;;;4.95;;
32611;SDS011;19030;49.478;8.986;2023-11-21T03:02:08;10.52;;;4.60;;
32611;SDS011;19030;49.478;8.986;2023-11-21T03:04:08;8.25;;;4.20;;
32611;SDS011;19030;49.478;8.986;2023-11-21T03:06:09;6.28;;;4.30;;
32611;SDS011;19030;49.478;8.986;2023-11-21T03:08:09;7.07;;;4.55;;
32611;SDS011;19030;49.478;8.986;2023-11-21T03:10:10;7.38;;;4.78;;
32611;SDS011;19030;49.478;8.986;2023-11-21T03:12:11;9.50;;;4.38;;
32611;SDS011;19030;49.478;8.986;2023-11-21T03:14:16;10.48;;;4.70;;
32611;SDS011;19030;49.478;8.986;2023-11-21T03:16:16;7.63;;;4.50;;
32611;SDS011;19030;49.478;8.986;2023-11-21T03:18:17;7.40;;;4.40;;
32611;SDS011;19030;49.478;8.986;2023-11-21T03:20:17;6.97;;;5.22;;
32611;SDS011;19030;49.478;8.986;2023-11-21T03:22:18;7.28;;;4.90;;
32611;SDS011;19030;49.478;8.986;2023-11-21T03:24:19;6.82;;;4.40;;
32611;SDS011;19030;49.478;8.986;2023-11-21T03:26:20;8.75;;;4.85;;
32611;SDS011;19030;49.478;8.986;2023-11-21T03:28:20;9.98;;;4.95;;
32611;SDS011;19030;49.478;8.986;2023-11-21T03:30:21;8.13;;;4.28;;
32611;SDS011;19030;49.478;8.986;2023-11-21T03:32:21;7.82;;;4.65;;
32611;SDS011;19030;49.478;8.986;2023-11-21T03:34:26;11.13;;;4.88;;
32611;SDS011;19030;49.478;8.986;2023-11-21T03:36:28;9.98;;;4.80;;
32611;SDS011;19030;49.478;8.986;2023-11-21T03:38:29;8.65;;;4.30;;
32611;SDS011;19030;49.478;8.986;2023-11-21T03:40:30;7.53;;;4.40;;
32611;SDS011;19030;49.478;8.986;2023-11-21T03:42:31;6.78;;;4.55;;
32611;SDS011;19030;49.478;8.986;2023-11-21T03:44:32;5.70;;;4.78;;
32611;SDS011;19030;49.478;8.986;2023-11-21T03:46:32;12.50;;;4.65;;
32611;SDS011;19030;49.478;8.986;2023-11-21T03:48:33;6.03;;;4.28;;
32611;SDS011;19030;49.478;8.986;2023-11-21T03:50:34;9.48;;;4.38;;
32611;SDS011;19030;49.478;8.986;2023-11-21T03:52:35;8.05;;;4.00;;
32611;SDS011;19030;49.478;8.986;2023-11-21T03:54:35;6.80;;;4.57;;
32611;SDS011;19030;49.478;8.986;2023-11-21T03:56:36;6.30;;;4.43;;
32611;SDS011;19030;49.478;8.986;2023-11-21T03:58:37;7.20;;;4.60;;
32611;SDS011;19030;49.478;8.986;2023-11-21T04:00:37;6.93;;;4.40;;
32611;SDS011;19030;49.478;8.986;2023-11-21T04:02:38;7.30;;;4.78;;
32611;SDS011;19030;49.478;8.986;2023-11-21T04:04:39;9.32;;;5.22;;
32611;SDS011;19030;49.478;8.986;2023-11-21T04:06:41;6.85;;;4.72;;
32611;SDS011;19030;49.478;8.986;2023-11-21T04:08:41;8.05;;;4.80;;
32611;SDS011;19030;49.478;8.986;2023-11-21T04:10:42;6.70;;;4.10;;
32611;SDS011;19030;49.478;8.986;2023-11-21T04:12:42;8.30;;;4.70;;
32611;SDS011;19030;49.478;8.986;2023-11-21T04:14:43;7.75;;;4.90;;
32611;SDS011;19030;49.478;8.986;2023-11-21T04:16:44;5.57;;;4.15;;
32611;SDS011;19030;49.478;8.986;2023-11-21T04:18:44;5.47;;;4.00;;
32611;SDS011;19030;49.478;8.986;2023-11-21T04:20:45;5.72;;;4.10;;
32611;SDS011;19030;49.478;8.986;2023-11-21T04:22:45;7.63;;;4.43;;
32611;SDS011;19030;49.478;8.986;2023-11-21T04:24:46;6.93;;;5.07;;
32611;SDS011;19030;49.478;8.986;2023-11-21T04:26:46;5.75;;;4.05;;
32611;SDS011;19030;49.478;8.986;2023-11-21T04:28:47;7.93;;;4.70;;
32611;SDS011;19030;49.478;8.986;2023-11-21T04:30:47;9.07;;;4.80;;
32611;SDS011;19030;49.478;8.986;2023-11-21T04:32:48;9.50;;;4.82;;
32611;SDS011;19030;49.478;8.986;2023-11-21T04:34:48;6.75;;;4.57;;
32611;SDS011;19030;49.478;8.986;2023-11-21T04:36:49;7.80;;;4.78;;
32611;SDS011;19030;49.478;8.986;2023-11-21T04:38:50;10.60;;;5.68;;
32611;SDS011;19030;49.478;8.986;2023-11-21T04:40:50;8.82;;;5.47;;
32611;SDS011;19030;49.478;8.986;2023-11-21T04:42:51;9.13;;;6.10;;
32611;SDS011;19030;49.478;8.986;2023-11-21T04:44:52;8.18;;;5.75;;
32611;SDS011;19030;49.478;8.986;2023-11-21T04:46:52;10.60;;;5.75;;
32611;SDS011;19030;49.478;8.986;2023-11-21T04:48:53;8.60;;;5.68;;
32611;SDS011;19030;49.478;8.986;2023-11-21T04:50:53;8.75;;;5.85;;
32611;SDS011;19030;49.478;8.986;2023-11-21T04:52:54;10.20;;;6.32;;
32611;SDS011;19030;49.478;8.986;2023-11-21T04:54:54;10.57;;;5.85;;
32611;SDS011;19030;49.478;8.986;2023-11-21T04:56:57;9.95;;;5.88;;
32611;SDS011;19030;49.478;8.986;2023-11-21T04:58:58;8.65;;;5.63;;
32611;SDS011;19030;49.478;8.986;2023-11-21T05:00:59;14.23;;;5.80;;
32611;SDS011;19030;49.478;8.986;2023-11-21T05:03:00;9.93;;;6.18;;
32611;SDS011;19030;49.478;8.986;2023-11-21T05:05:04;10.30;;;5.75;;
32611;SDS011;19030;49.478;8.986;2023-11-21T05:07:05;10.13;;;5.93;;
32611;SDS011;19030;49.478;8.986;2023-11-21T05:09:06;9.80;;;6.47;;
32611;SDS011;19030;49.478;8.986;2023-11-21T05:11:11;9.15;;;6.25;;
32611;SDS011;19030;49.478;8.986;2023-11-21T05:13:12;11.18;;;5.80;;
32611;SDS011;19030;49.478;8.986;2023-11-21T05:15:13;8.25;;;5.88;;
32611;SDS011;19030;49.478;8.986;2023-11-21T05:17:15;7.80;;;5.80;;
32611;SDS011;19030;49.478;8.986;2023-11-21T05:19:16;9.20;;;6.28;;
32611;SDS011;19030;49.478;8.986;2023-11-21T05:21:16;9.32;;;6.13;;
32611;SDS011;19030;49.478;8.986;2023-11-21T05:23:17;15.27;;;6.43;;
32611;SDS011;19030;49.478;8.986;2023-11-21T05:25:17;9.10;;;5.80;;
32611;SDS011;19030;49.478;8.986;2023-11-21T05:27:18;9.20;;;5.38;;
32611;SDS011;19030;49.478;8.986;2023-11-21T05:29:18;7.93;;;5.88;;
32611;SDS011;19030;49.478;8.986;2023-11-21T05:31:19;11.80;;;6.32;;
32611;SDS011;19030;49.478;8.986;2023-11-21T05:33:20;8.45;;;6.07;;
32611;SDS011;19030;49.478;8.986;2023-11-21T05:35:20;8.77;;;6.15;;
32611;SDS011;19030;49.478;8.986;2023-11-21T05:37:21;7.78;;;6.05;;
32611;SDS011;19030;49.478;8.986;2023-11-21T05:39:23;10.82;;;6.47;;
32611;SDS011;19030;49.478;8.986;2023-11-21T05:41:24;8.10;;;6.18;;
32611;SDS011;19030;49.478;8.986;2023-11-21T05:43:25;8.95;;;6.13;;
32611;SDS011;19030;49.478;8.986;2023-11-21T05:45:28;17.58;;;6.88;;
32611;SDS011;19030;49.478;8.986;2023-11-21T05:47:29;9.32;;;6.55;;
32611;SDS011;19030;49.478;8.986;2023-11-21T05:49:30;8.82;;;6.45;;
32611;SDS011;19030;49.478;8.986;2023-11-21T05:51:31;10.35;;;5.97;;
32611;SDS011;19030;49.478;8.986;2023-11-21T05:53:31;10.70;;;6.53;;
32611;SDS011;19030;49.478;8.986;2023-11-21T05:55:32;13.10;;;6.30;;
32611;SDS011;19030;49.478;8.986;2023-11-21T05:57:36;10.23;;;5.93;;
32611;SDS011;19030;49.478;8.986;2023-11-21T05:59:38;11.38;;;5.68;;
32611;SDS011;19030;49.478;8.986;2023-11-21T06:01:38;8.18;;;5.78;;
32611;SDS011;19030;49.478;8.986;2023-11-21T06:03:39;9.65;;;5.60;;
32611;SDS011;19030;49.478;8.986;2023-11-21T06:05:39;6.97;;;4.70;;
32611;SDS011;19030;49.478;8.986;2023-11-21T06:07:40;8.77;;;5.55;;
32611;SDS011;19030;49.478;8.986;2023-11-21T06:09:41;8.68;;;5.40;;
32611;SDS011;19030;49.478;8.986;2023-11-21T06:11:41;8.85;;;5.50;;
32611;SDS011;19030;49.478;8.986;2023-11-21T06:13:42;11.50;;;5.50;;
32611;SDS011;19030;49.478;8.986;2023-11-21T06:15:42;7.32;;;5.35;;
32611;SDS011;19030;49.478;8.986;2023-11-21T06:17:43;12.90;;;5.82;;
32611;SDS011;19030;49.478;8.986;2023-11-21T06:19:44;10.77;;;5.40;;
32611;SDS011;19030;49.478;8.986;2023-11-21T06:21:46;13.57;;;5.80;;
32611;SDS011;19030;49.478;8.986;2023-11-21T06:23:47;10.02;;;5.22;;
32611;SDS011;19030;49.478;8.986;2023-11-21T06:25:47;8.57;;;4.88;;
32611;SDS011;19030;49.478;8.986;2023-11-21T06:27:49;7.65;;;4.82;;
32611;SDS011;19030;49.478;8.986;2023-11-21T06:29:51;9.30;;;4.90;;
32611;SDS011;19030;49.478;8.986;2023-11-21T06:31:52;9.63;;;5.60;;
32611;SDS011;19030;49.478;8.986;2023-11-21T06:33:55;8.30;;;5.25;;
32611;SDS011;19030;49.478;8.986;2023-11-21T06:35:55;11.70;;;5.38;;
32611;SDS011;19030;49.478;8.986;2023-11-21T06:37:56;9.35;;;5.25;;
32611;SDS011;19030;49.478;8.986;2023-11-21T06:39:57;7.72;;;5.30;;
32611;SDS011;19030;49.478;8.986;2023-11-21T06:41:58;11.82;;;6.30;;
32611;SDS011;19030;49.478;8.986;2023-11-21T06:44:00;10.02;;;5.80;;
32611;SDS011;19030;49.478;8.986;2023-11-21T06:46:00;9.63;;;5.80;;
32611;SDS011;19030;49.478;8.986;2023-11-21T06:48:01;9.15;;;5.55;;
32611;SDS011;19030;49.478;8.986;2023-11-21T06:50:02;8.93;;;6.03;;
32611;SDS011;19030;49.478;8.986;2023-11-21T06:52:02;11.13;;;5.88;;
32611;SDS011;19030;49.478;8.986;2023-11-21T06:54:03;8.45;;;5.75;;
32611;SDS011;19030;49.478;8.986;2023-11-21T06:56:04;9.63;;;5.60;;
32611;SDS011;19030;49.478;8.986;2023-11-21T06:58:14;14.48;;;6.60;;
32611;SDS011;19030;49.478;8.986;2023-11-21T07:00:15;10.02;;;6.28;;
32611;SDS011;19030;49.478;8.986;2023-11-21T07:02:20;9.95;;;6.05;;
32611;SDS011;19030;49.478;8.986;2023-11-21T07:04:20;10.30;;;6.43;;
32611;SDS011;19030;49.478;8.986;2023-11-21T07:06:21;9.40;;;6.05;;
32611;SDS011;19030;49.478;8.986;2023-11-21T07:08:21;8.07;;;5.70;;
32611;SDS011;19030;49.478;8.986;2023-11-21T07:10:22;10.10;;;5.72;;
32611;SDS011;19030;49.478;8.986;2023-11-21T07:12:23;9.80;;;5.60;;
32611;SDS011;19030;49.478;8.986;2023-11-21T07:14:25;12.35;;;5.78;;
32611;SDS011;19030;49.478;8.986;2023-11-21T07:16:26;10.23;;;5.88;;
32611;SDS011;19030;49.478;8.986;2023-11-21T07:18:26;8.70;;;5.97;;
32611;SDS011;19030;49.478;8.986;2023-11-21T07:20:27;7.70;;;5.72;;
32611;SDS011;19030;49.478;8.986;2023-11-21T07:22:28;13.73;;;5.90;;
32611;SDS011;19030;49.478;8.986;2023-11-21T07:24:28;8.57;;;5.70;;
32611;SDS011;19030;49.478;8.986;2023-11-21T07:26:30;8.40;;;5.55;;
32611;SDS011;19030;49.478;8.986;2023-11-21T07:28:31;13.07;;;6.18;;
32611;SDS011;19030;49.478;8.986;2023-11-21T07:30:31;8.73;;;6.13;;
32611;SDS011;19030;49.478;8.986;2023-11-21T07:32:32;8.27;;;5.65;;
32611;SDS011;19030;49.478;8.986;2023-11-21T07:34:33;7.28;;;5.18;;
32611;SDS011;19030;49.478;8.986;2023-11-21T07:36:33;7.88;;;5.32;;
32611;SDS011;19030;49.478;8.986;2023-11-21T07:38:34;7.75;;;5.03;;
32611;SDS011;19030;49.478;8.986;2023-11-21T07:40:34;7.07;;;5.13;;
32611;SDS011;19030;49.478;8.986;2023-11-21T07:42:35;9.85;;;5.32;;
32611;SDS011;19030;49.478;8.986;2023-11-21T07:44:36;8.90;;;5.30;;
32611;SDS011;19030;49.478;8.986;2023-11-21T07:46:36;7.32;;;4.90;;
32611;SDS011;19030;49.478;8.986;2023-11-21T07:48:37;8.05;;;4.82;;
32611;SDS011;19030;49.478;8.986;2023-11-21T07:50:38;9.82;;;4.82;;
32611;SDS011;19030;49.478;8.986;2023-11-21T07:52:39;6.80;;;4.78;;
32611;SDS011;19030;49.478;8.986;2023-11-21T07:54:39;7.32;;;4.80;;
32611;SDS011;19030;49.478;8.986;2023-11-21T07:56:40;7.50;;;5.18;;
32611;SDS011;19030;49.478;8.986;2023-11-21T07:58:41;7.40;;;5.72;;
32611;SDS011;19030;49.478;8.986;2023-11-21T08:00:41;14.48;;;6.40;;
32611;SDS011;19030;49.478;8.986;2023-11-21T08:02:42;8.52;;;6.13;;
32611;SDS011;19030;49.478;8.986;2023-11-21T08:04:42;10.23;;;6.10;;
32611;SDS011;19030;49.478;8.986;2023-11-21T08:06:43;8.10;;;5.68;;
32611;SDS011;19030;49.478;8.986;2023-11-21T08:08:43;10.75;;;5.82;;
32611;SDS011;19030;49.478;8.986;2023-11-21T08:10:44;8.00;;;5.57;;
32611;SDS011;19030;49.478;8.986;2023-11-21T08:12:48;8.50;;;6.03;;
32611;SDS011;19030;49.478;8.986;2023-11-21T08:14:50;13.05;;;5.40;;
32611;SDS011;19030;49.478;8.986;2023-11-21T08:16:51;12.02;;;7.80;;
32611;SDS011;19030;49.478;8.986;2023-11-21T08:18:52;9.02;;;5.57;;
32611;SDS011;19030;49.478;8.986;2023-11-21T08:20:53;7.60;;;5.20;;
32611;SDS011;19030;49.478;8.986;2023-11-21T08:22:55;7.22;;;5.22;;
32611;SDS011;19030;49.478;8.986;2023-11-21T08:24:57;7.57;;;5.57;;
32611;SDS011;19030;49.478;8.986;2023-11-21T08:26:58;6.78;;;4.82;;
32611;SDS011;19030;49.478;8.986;2023-11-21T08:28:58;6.22;;;4.70;;
32611;SDS011;19030;49.478;8.986;2023-11-21T08:31:00;6.18;;;5.00;;
32611;SDS011;19030;49.478;8.986;2023-11-21T08:33:01;6.22;;;4.60;;
32611;SDS011;19030;49.478;8.986;2023-11-21T08:35:03;7.65;;;5.40;;
32611;SDS011;19030;49.478;8.986;2023-11-21T08:37:05;8.52;;;4.55;;
32611;SDS011;19030;49.478;8.986;2023-11-21T08:39:06;7.82;;;4.88;;
32611;SDS011;19030;49.478;8.986;2023-11-21T08:41:06;8.70;;;5.10;;
32611;SDS011;19030;49.478;8.986;2023-11-21T08:43:07;8.63;;;4.60;;
32611;SDS011;19030;49.478;8.986;2023-11-21T08:45:08;4.35;;;3.80;;
32611;SDS011;19030;49.478;8.986;2023-11-21T08:47:09;6.82;;;6.03;;
32611;SDS011;19030;49.478;8.986;2023-11-21T08:49:10;7.00;;;5.65;;
32611;SDS011;19030;49.478;8.986;2023-11-21T08:51:11;8.05;;;5.97;;
32611;SDS011;19030;49.478;8.986;2023-11-21T08:53:12;6.25;;;5.20;;
32611;SDS011;19030;49.478;8.986;2023-11-21T08:55:13;5.55;;;4.60;;
32611;SDS011;19030;49.478;8.986;2023-11-21T08:57:13;5.28;;;4.30;;
32611;SDS011;19030;49.478;8.986;2023-11-21T08:59:14;4.55;;;4.10;;
32611;SDS011;19030;49.478;8.986;2023-11-21T09:01:15;5.07;;;4.30;;
32611;SDS011;19030;49.478;8.986;2023-11-21T09:03:15;4.30;;;3.80;;
32611;SDS011;19030;49.478;8.986;2023-11-21T09:05:16;4.22;;;3.80;;
32611;SDS011;19030;49.478;8.986;2023-11-21T09:07:17;3.75;;;3.45;;
32611;SDS011;19030;49.478;8.986;2023-11-21T09:09:20;3.97;;;3.47;;
32611;SDS011;19030;49.478;8.986;2023-11-21T09:11:21;3.58;;;3.20;;
32611;SDS011;19030;49.478;8.986;2023-11-21T09:13:21;3.65;;;3.35;;
32611;SDS011;19030;49.478;8.986;2023-11-21T09:15:22;6.43;;;3.97;;
32611;SDS011;19030;49.478;8.986;2023-11-21T09:17:22;8.05;;;5.45;;
32611;SDS011;19030;49.478;8.986;2023-11-21T09:19:24;4.32;;;3.78;;
32611;SDS011;19030;49.478;8.986;2023-11-21T09:21:25;3.95;;;3.55;;
32611;SDS011;19030;49.478;8.986;2023-11-21T09:23:25;4.75;;;3.63;;
32611;SDS011;19030;49.478;8.986;2023-11-21T09:25:26;4.13;;;3.60;;
32611;SDS011;19030;49.478;8.986;2023-11-21T09:27:28;3.60;;;3.30;;
32611;SDS011;19030;49.478;8.986;2023-11-21T09:29:29;4.18;;;3.78;;
32611;SDS011;19030;49.478;8.986;2023-11-21T09:31:30;4.00;;;3.70;;
32611;SDS011;19030;49.478;8.986;2023-11-21T09:33:31;4.80;;;4.28;;
32611;SDS011;19030;49.478;8.986;2023-11-21T09:35:31;4.20;;;3.80;;
32611;SDS011;19030;49.478;8.986;2023-11-21T09:37:32;4.22;;;3.80;;
32611;SDS011;19030;49.478;8.986;2023-11-21T09:39:33;3.95;;;3.65;;
32611;SDS011;19030;49.478;8.986;2023-11-21T09:41:38;3.88;;;3.47;;
32611;SDS011;19030;49.478;8.986;2023-11-21T09:43:45;4.43;;;3.72;;
32611;SDS011;19030;49.478;8.986;2023-11-21T09:45:47;3.90;;;3.60;;
32611;SDS011;19030;49.478;8.986;2023-11-21T09:47:59;4.63;;;3.90;;
32611;SDS011;19030;49.478;8.986;2023-11-21T09:50:00;5.32;;;4.30;;
32611;SDS011;19030;49.478;8.986;2023-11-21T09:52:02;4.72;;;4.30;;
32611;SDS011;19030;49.478;8.986;2023-11-21T09:54:03;4.38;;;3.97;;
32611;SDS011;19030;49.478;8.986;2023-11-21T09:56:09;4.60;;;3.90;;
32611;SDS011;19030;49.478;8.986;2023-11-21T09:58:09;6.53;;;5.40;;
32611;SDS011;19030;49.478;8.986;2023-11-21T10:00:14;7.70;;;6.00;;
32611;SDS011;19030;49.478;8.986;2023-11-21T10:02:17;4.80;;;4.35;;
32611;SDS011;19030;49.478;8.986;2023-11-21T10:04:20;5.15;;;4.63;;
32611;SDS011;19030;49.478;8.986;2023-11-21T10:06:21;6.72;;;4.78;;
32611;SDS011;19030;49.478;8.986;2023-11-21T10:08:23;5.10;;;4.60;;
32611;SDS011;19030;49.478;8.986;2023-11-21T10:10:28;9.52;;;8.18;;
32611;SDS011;19030;49.478;8.986;2023-11-21T10:12:32;8.60;;;7.80;;
32611;SDS011;19030;49.478;8.986;2023-11-21T10:14:32;9.43;;;8.63;;
32611;SDS011;19030;49.478;8.986;2023-11-21T10:16:37;9.50;;;8.70;;
32611;SDS011;19030;49.478;8.986;2023-11-21T10:18:39;5.22;;;4.72;;
32611;SDS011;19030;49.478;8.986;2023-11-21T10:20:40;5.15;;;4.65;;
32611;SDS011;19030;49.478;8.986;2023-11-21T10:22:42;5.70;;;4.53;;
32611;SDS011;19030;49.478;8.986;2023-11-21T10:24:43;4.50;;;4.10;;
32611;SDS011;19030;49.478;8.986;2023-11-21T10:26:43;4.75;;;4.30;;
32611;SDS011;19030;49.478;8.986;2023-11-21T10:28:57;4.97;;;4.43;;
32611;SDS011;19030;49.478;8.986;2023-11-21T10:30:59;5.00;;;4.50;;
32611;SDS011;19030;49.478;8.986;2023-11-21T10:32:59;4.50;;;4.10;;
32611;SDS011;19030;49.478;8.986;2023-11-21T10:35:02;5.35;;;4.50;;
32611;SDS011;19030;49.478;8.986;2023-11-21T10:37:13;4.88;;;4.38;;
32611;SDS011;19030;49.478;8.986;2023-11-21T10:39:17;6.10;;;4.25;;
32611;SDS011;19030;49.478;8.986;2023-11-21T10:41:19;5.90;;;4.00;;
32611;SDS011;19030;49.478;8.986;2023-11-21T10:43:21;5.10;;;4.60;;
32611;SDS011;19030;49.478;8.986;2023-11-21T10:45:25;4.82;;;4.32;;
32611;SDS011;19030;49.478;8.986;2023-11-21T10:47:29;4.97;;;4.53;;
32611;SDS011;19030;49.478;8.986;2023-11-21T10:49:31;5.22;;;4.60;;
32611;SDS011;19030;49.478;8.986;2023-11-21T10:51:32;5.20;;;4.70;;
32611;SDS011;19030;49.478;8.986;2023-11-21T10:53:33;5.20;;;4.70;;
32611;SDS011;19030;49.478;8.986;2023-11-21T10:55:34;5.60;;;5.10;;
32611;SDS011;19030;49.478;8.986;2023-11-21T10:57:34;6.25;;;5.65;;
32611;SDS011;19030;49.478;8.986;2023-11-21T10:59:35;5.50;;;5.00;;
32611;SDS011;19030;49.478;8.986;2023-11-21T11:01:36;5.80;;;5.25;;
32611;SDS011;19030;49.478;8.986;2023-11-21T11:03:37;5.75;;;4.70;;
32611;SDS011;19030;49.478;8.986;2023-11-21T11:05:38;6.10;;;4.70;;
32611;SDS011;19030;49.478;8.986;2023-11-21T11:07:40;5.43;;;4.90;;
32611;SDS011;19030;49.478;8.986;2023-11-21T11:09:44;5.40;;;4.90;;
32611;SDS011;19030;49.478;8.986;2023-11-21T11:11:45;5.28;;;4.68;;
32611;SDS011;19030;49.478;8.986;2023-11-21T11:13:46;6.05;;;5.45;;
32611;SDS011;19030;49.478;8.986;2023-11-21T11:15:47;7.20;;;4.45;;
32611;SDS011;19030;49.478;8.986;2023-11-21T11:17:48;4.93;;;4.43;;
32611;SDS011;19030;49.478;8.986;2023-11-21T11:19:49;4.50;;;4.10;;
32611;SDS011;19030;49.478;8.986;2023-11-21T11:26:31;5.43;;;4.93;;
32611;SDS011;19030;49.478;8.986;2023-11-21T11:28:53;6.20;;;4.93;;
32611;SDS011;19030;49.478;8.986;2023-11-21T11:31:31;5.15;;;4.60;;
32611;SDS011;19030;49.478;8.986;2023-11-21T11:33:59;4.80;;;4.30;;
32611;SDS011;19030;49.478;8.986;2023-11-21T11:38:35;4.82;;;4.25;;
32611;SDS011;19030;49.478;8.986;2023-11-21T11:40:40;5.15;;;4.47;;
32611;SDS011;19030;49.478;8.986;2023-11-21T11:42:57;4.53;;;4.10;;
32611;SDS011;19030;49.478;8.986;2023-11-21T11:45:02;4.53;;;4.13;;
32611;SDS011;19030;49.478;8.986;2023-11-21T11:47:22;5.32;;;4.38;;
32611;SDS011;19030;49.478;8.986;2023-11-21T11:49:33;5.18;;;4.50;;
32611;SDS011;19030;49.478;8.986;2023-11-21T11:51:33;4.95;;;4.25;;
32611;SDS011;19030;49.478;8.986;2023-11-21T11:53:36;4.57;;;4.10;;
32611;SDS011;19030;49.478;8.986;2023-11-21T11:55:39;5.15;;;4.40;;
32611;SDS011;19030;49.478;8.986;2023-11-21T11:57:40;4.60;;;4.10;;
32611;SDS011;19030;49.478;8.986;2023-11-21T12:02:23;8.13;;;7.32;;
32611;SDS011;19030;49.478;8.986;2023-11-21T12:04:24;8.20;;;7.40;;
32611;SDS011;19030;49.478;8.986;2023-11-21T12:06:34;7.50;;;6.80;;
32611;SDS011;19030;49.478;8.986;2023-11-21T12:08:35;7.15;;;6.45;;
32611;SDS011;19030;49.478;8.986;2023-11-21T12:10:37;7.50;;;6.78;;
32611;SDS011;19030;49.478;8.986;2023-11-21T12:12:42;7.18;;;6.47;;
32611;SDS011;19030;49.478;8.986;2023-11-21T12:14:44;14.77;;;6.30;;
32611;SDS011;19030;49.478;8.986;2023-11-21T12:16:45;7.38;;;6.68;;
32611;SDS011;19030;49.478;8.986;2023-11-21T12:18:48;7.63;;;6.93;;
32611;SDS011;19030;49.478;8.986;2023-11-21T12:20:48;7.57;;;6.88;;